createdAt,value
2023-04-04T00:00:53.495Z,51.35
2023-04-04T00:03:21.782Z,51.56
2023-04-04T00:05:51.831Z,51.72
2023-04-04T00:08:20.231Z,51.97
2023-04-04T00:10:48.361Z,52.13
2023-04-04T00:13:16.562Z,52.29
2023-04-04T00:15:44.727Z,52.37
2023-04-04T00:18:12.910Z,52.45
2023-04-04T00:20:41.526Z,52.69
2023-04-04T00:23:11.290Z,52.80
2023-04-04T00:25:39.473Z,52.98
2023-04-04T00:28:07.594Z,53.00
2023-04-04T00:30:35.834Z,52.70
2023-04-04T00:33:04.658Z,52.53
2023-04-04T00:35:33.551Z,52.35
2023-04-04T00:38:01.894Z,52.20
2023-04-04T00:40:30.288Z,52.20
2023-04-04T00:43:00.598Z,52.20
2023-04-04T00:45:28.911Z,52.30
2023-04-04T00:47:58.831Z,52.33
2023-04-04T00:50:27.095Z,52.41
2023-04-04T00:52:56.463Z,52.48
2023-04-04T00:55:25.871Z,52.16
2023-04-04T00:57:54.478Z,51.55
2023-04-04T01:00:22.928Z,51.48
2023-04-04T01:02:51.629Z,51.25
2023-04-04T01:05:19.731Z,50.71
2023-04-04T01:07:48.511Z,50.40
2023-04-04T01:10:17.331Z,50.12
2023-04-04T01:12:45.831Z,49.90
2023-04-04T01:15:14.255Z,49.80
2023-04-04T01:17:43.776Z,49.80
2023-04-04T01:20:16.245Z,50.01
2023-04-04T01:22:51.117Z,50.39
2023-04-04T01:25:27.910Z,50.52
2023-04-04T01:27:59.337Z,50.82
2023-04-04T01:30:32.258Z,51.05
2023-04-04T01:33:11.059Z,50.98
2023-04-04T01:35:50.796Z,51.01
2023-04-04T01:38:49.731Z,51.00
2023-04-04T01:41:20.565Z,50.86
2023-04-04T01:43:56.256Z,50.77
2023-04-04T01:46:25.827Z,50.72
2023-04-04T01:48:54.058Z,50.55
2023-04-04T01:51:27.168Z,50.84
2023-04-04T01:53:55.861Z,50.85
2023-04-04T01:56:24.798Z,51.10
2023-04-04T01:58:54.042Z,51.20
2023-04-04T02:01:22.318Z,51.20
2023-04-04T02:03:50.788Z,51.13
2023-04-04T02:06:19.691Z,51.01
2023-04-04T02:08:48.264Z,50.90
2023-04-04T02:11:17.684Z,50.91
2023-04-04T02:13:46.455Z,50.78
2023-04-04T02:16:16.826Z,50.80
2023-04-04T02:18:45.166Z,51.00
2023-04-04T02:21:13.733Z,51.05
2023-04-04T02:23:41.870Z,51.15
2023-04-04T02:26:10.052Z,51.35
2023-04-04T02:28:39.909Z,51.45
2023-04-04T02:31:07.989Z,51.51
2023-04-04T02:33:36.464Z,51.30
2023-04-04T02:36:06.393Z,51.38
2023-04-04T02:38:34.796Z,51.64
2023-04-04T02:41:05.994Z,51.90
2023-04-04T02:43:34.364Z,52.12
2023-04-04T02:46:14.354Z,52.31
2023-04-04T02:48:47.263Z,52.39
2023-04-04T02:51:15.903Z,52.40
2023-04-04T02:53:44.118Z,52.53
2023-04-04T02:56:20.130Z,52.64
2023-04-04T02:58:48.655Z,52.65
2023-04-04T03:01:16.895Z,52.53
2023-04-04T03:03:45.522Z,52.59
2023-04-04T03:06:15.161Z,52.52
2023-04-04T03:08:43.404Z,52.34
2023-04-04T03:11:12.217Z,52.34
2023-04-04T03:13:40.867Z,52.22
2023-04-04T03:16:08.976Z,52.26
2023-04-04T03:18:45.443Z,52.23
2023-04-04T03:21:14.195Z,52.36
2023-04-04T03:23:43.218Z,52.45
2023-04-04T03:26:11.729Z,52.49
2023-04-04T03:28:39.885Z,52.51
2023-04-04T03:31:08.278Z,52.59
2023-04-04T03:33:40.126Z,52.69
2023-04-04T03:36:14.382Z,52.69
2023-04-04T03:38:43.041Z,52.77
2023-04-04T03:41:11.714Z,52.84
2023-04-04T03:43:40.027Z,52.83
2023-04-04T03:46:09.239Z,52.83
2023-04-04T03:48:37.504Z,52.88
2023-04-04T03:51:08.090Z,52.82
2023-04-04T03:53:37.449Z,52.75
2023-04-04T03:56:05.655Z,52.69
2023-04-04T03:58:36.435Z,52.67
2023-04-04T04:01:04.941Z,52.39
2023-04-04T04:03:33.292Z,52.20
2023-04-04T04:06:01.641Z,52.09
2023-04-04T04:08:29.762Z,51.67
2023-04-04T04:11:04.283Z,51.35
2023-04-04T04:13:36.386Z,51.36
2023-04-04T04:16:05.360Z,51.53
2023-04-04T04:18:34.227Z,51.33
2023-04-04T04:21:04.300Z,51.34
2023-04-04T04:23:33.379Z,51.41
2023-04-04T04:26:01.591Z,51.66
2023-04-04T04:28:33.815Z,51.87
2023-04-04T04:31:08.534Z,52.06
2023-04-04T04:33:42.789Z,52.18
2023-04-04T04:36:11.660Z,52.43
2023-04-04T04:38:57.735Z,52.69
2023-04-04T04:41:29.486Z,53.17
2023-04-04T04:43:57.814Z,54.01
2023-04-04T04:46:27.073Z,54.04
2023-04-04T04:48:55.279Z,54.37
2023-04-04T04:51:27.568Z,54.75
2023-04-04T04:53:57.064Z,54.97
2023-04-04T04:56:25.527Z,55.35
2023-04-04T04:58:55.071Z,55.41
2023-04-04T05:01:26.710Z,55.66
2023-04-04T05:03:56.834Z,55.94
2023-04-04T05:06:31.573Z,56.11
2023-04-04T05:09:00.219Z,56.23
2023-04-04T05:11:34.826Z,56.14
2023-04-04T05:14:04.005Z,56.50
2023-04-04T05:16:36.487Z,56.68
2023-04-04T05:19:05.724Z,56.89
2023-04-04T05:21:38.537Z,56.70
2023-04-04T05:24:08.358Z,56.88
2023-04-04T05:26:38.256Z,56.97
2023-04-04T05:29:07.180Z,57.07
2023-04-04T05:31:35.745Z,57.27
2023-04-04T05:34:10.036Z,57.44
2023-04-04T05:36:39.655Z,57.57
2023-04-04T05:39:08.091Z,57.84
2023-04-04T05:41:40.802Z,58.17
2023-04-04T05:44:27.582Z,58.08
2023-04-04T05:46:57.300Z,58.00
2023-04-04T05:49:25.921Z,58.03
2023-04-04T05:51:59.482Z,57.99
2023-04-04T05:54:28.467Z,58.05
2023-04-04T05:56:57.585Z,58.29
2023-04-04T05:59:38.985Z,58.04
2023-04-04T06:02:08.458Z,57.92
2023-04-04T06:04:41.192Z,57.91
2023-04-04T06:07:11.563Z,57.59
2023-04-04T06:09:40.782Z,57.66
2023-04-04T06:12:09.369Z,57.71
2023-04-04T06:14:37.968Z,57.78
2023-04-04T06:17:07.624Z,57.64
2023-04-04T06:19:36.833Z,57.76
2023-04-04T06:22:04.931Z,57.90
2023-04-04T06:24:37.022Z,57.94
2023-04-04T06:27:06.736Z,57.76
2023-04-04T06:29:37.451Z,57.92
2023-04-04T06:32:07.590Z,58.16
2023-04-04T06:34:39.423Z,58.30
2023-04-04T06:37:07.993Z,58.37
2023-04-04T06:39:50.606Z,58.20
2023-04-04T06:42:26.085Z,58.18
2023-04-04T06:44:54.915Z,58.31
2023-04-04T06:47:23.107Z,58.45
2023-04-04T06:49:51.587Z,58.53
2023-04-04T06:52:20.488Z,58.62
2023-04-04T06:54:48.699Z,58.85
2023-04-04T06:57:18.406Z,58.88
2023-04-04T06:59:46.657Z,59.22
2023-04-04T07:02:14.726Z,59.31
2023-04-04T07:04:43.166Z,59.34
2023-04-04T07:07:12.427Z,59.23
2023-04-04T07:09:40.499Z,59.09
2023-04-04T07:12:08.609Z,59.09
2023-04-04T07:14:37.161Z,59.11
2023-04-04T07:17:13.685Z,58.74
2023-04-04T07:19:49.838Z,58.24
2023-04-04T07:22:18.104Z,57.88
2023-04-04T07:24:46.341Z,57.69
2023-04-04T07:27:16.049Z,57.48
2023-04-04T07:29:44.129Z,57.42
2023-04-04T07:32:12.481Z,57.29
2023-04-04T07:34:41.842Z,57.15
2023-04-04T07:37:09.902Z,57.10
2023-04-04T07:39:38.409Z,57.05
2023-04-04T07:42:06.846Z,56.91
2023-04-04T07:44:35.108Z,56.92
2023-04-04T07:47:09.962Z,56.75
2023-04-04T07:49:39.030Z,56.72
2023-04-04T07:52:07.308Z,56.65
2023-04-04T07:54:36.298Z,56.38
2023-04-04T07:57:10.238Z,56.20
2023-04-04T07:59:38.407Z,55.49
2023-04-04T08:02:07.392Z,54.83
2023-04-04T08:04:35.757Z,54.55
2023-04-04T08:07:04.086Z,54.29
2023-04-04T08:09:34.596Z,53.99
2023-04-04T08:12:03.635Z,54.08
2023-04-04T08:14:31.951Z,54.02
2023-04-04T08:17:00.282Z,53.20
2023-04-04T08:19:28.448Z,52.83
2023-04-04T08:21:56.855Z,52.48
2023-04-04T08:24:27.041Z,52.03
2023-04-04T08:27:04.498Z,51.86
2023-04-04T08:29:34.820Z,51.85
2023-04-04T08:32:03.318Z,50.62
2023-04-04T08:34:32.143Z,51.33
2023-04-04T08:37:00.480Z,50.28
2023-04-04T08:39:28.701Z,50.14
2023-04-04T08:42:02.903Z,50.41
2023-04-04T08:44:32.888Z,50.74
2023-04-04T08:47:05.527Z,50.55
2023-04-04T08:49:38.241Z,49.96
2023-04-04T08:52:07.773Z,49.83
2023-04-04T08:54:39.116Z,49.93
2023-04-04T08:57:08.603Z,49.89
2023-04-04T08:59:37.440Z,50.33
2023-04-04T09:02:09.748Z,50.48
2023-04-04T09:04:39.605Z,50.37
2023-04-04T09:07:09.310Z,50.62
2023-04-04T09:09:39.318Z,50.48
2023-04-04T09:12:08.416Z,50.55
2023-04-04T09:14:39.990Z,50.95
2023-04-04T09:17:10.981Z,51.26
2023-04-04T09:19:39.365Z,51.26
2023-04-04T09:22:09.183Z,51.32
2023-04-04T09:24:41.899Z,51.38
2023-04-04T09:27:11.637Z,51.41
2023-04-04T09:29:41.245Z,51.76
2023-04-04T09:32:10.529Z,51.55
2023-04-04T09:34:38.899Z,51.28
2023-04-04T09:37:07.558Z,51.18
2023-04-04T09:39:40.488Z,51.25
2023-04-04T09:42:08.974Z,50.96
2023-04-04T09:44:37.219Z,50.69
2023-04-04T09:50:01.073Z,50.47
2023-04-04T09:52:36.042Z,50.44
2023-04-04T09:55:06.656Z,50.43
2023-04-04T09:57:38.038Z,49.93
2023-04-04T10:00:11.324Z,49.41
2023-04-04T10:02:47.058Z,49.53
2023-04-04T10:05:16.862Z,49.63
2023-04-04T10:07:45.006Z,49.51
2023-04-04T10:10:14.023Z,49.91
2023-04-04T10:12:46.990Z,50.30
2023-04-04T10:15:16.632Z,50.08
2023-04-04T10:17:45.804Z,49.72
2023-04-04T10:20:14.161Z,48.98
2023-04-04T10:22:44.990Z,49.23
2023-04-04T10:25:14.334Z,49.16
2023-04-04T10:27:42.422Z,49.15
2023-04-04T10:30:11.392Z,48.93
2023-04-04T10:33:02.627Z,48.65
2023-04-04T10:35:31.957Z,48.68
2023-04-04T10:38:03.088Z,48.48
2023-04-04T10:40:35.973Z,48.45
2023-04-04T10:43:05.861Z,48.20
2023-04-04T10:45:40.661Z,47.67
2023-04-04T10:48:10.641Z,48.08
2023-04-04T10:50:39.547Z,47.93
2023-04-04T10:53:08.774Z,47.92
2023-04-04T10:55:39.183Z,47.42
2023-04-04T10:58:09.005Z,47.38
2023-04-04T11:00:51.950Z,47.01
2023-04-04T11:03:20.331Z,46.73
2023-04-04T11:05:51.167Z,47.25
2023-04-04T11:08:27.420Z,47.93
2023-04-04T11:10:57.625Z,47.82
2023-04-04T11:13:27.334Z,47.13
2023-04-04T11:15:58.131Z,47.09
2023-04-04T11:18:33.991Z,47.35
2023-04-04T11:21:05.381Z,46.91
2023-04-04T11:24:15.929Z,47.26
2023-04-04T11:26:46.197Z,47.26
2023-04-04T11:29:22.427Z,46.88
2023-04-04T11:31:51.526Z,46.68
2023-04-04T11:34:33.326Z,46.67
2023-04-04T11:37:17.942Z,47.07
2023-04-04T11:39:59.162Z,46.81
2023-04-04T11:42:34.440Z,46.61
2023-04-04T11:45:10.378Z,46.15
2023-04-04T11:47:39.395Z,46.25
2023-04-04T11:50:10.183Z,45.88
2023-04-04T11:52:40.988Z,44.77
2023-04-04T11:55:20.093Z,44.36
2023-04-04T11:57:51.623Z,44.81
2023-04-04T12:00:47.124Z,44.63
2023-04-04T12:03:21.922Z,44.52
2023-04-04T12:05:50.268Z,43.18
2023-04-04T12:08:19.118Z,43.44
2023-04-04T12:10:47.251Z,42.98
2023-04-04T12:13:16.487Z,41.63
2023-04-04T12:15:45.307Z,41.60
2023-04-04T12:18:22.176Z,41.46
2023-04-04T12:20:54.335Z,42.13
2023-04-04T12:23:22.478Z,42.68
2023-04-04T12:25:54.943Z,42.08
2023-04-04T12:28:23.557Z,42.59
2023-04-04T12:30:52.184Z,42.62
2023-04-04T12:33:21.334Z,42.88
2023-04-04T12:35:53.726Z,42.92
2023-04-04T12:38:21.862Z,42.66
2023-04-04T12:40:51.535Z,43.01
2023-04-04T12:43:21.014Z,43.10
2023-04-04T12:45:54.759Z,42.99
2023-04-04T12:48:29.075Z,42.98
2023-04-04T12:50:59.289Z,42.78
2023-04-04T12:53:30.046Z,42.71
2023-04-04T12:56:05.280Z,41.82
2023-04-04T12:58:35.996Z,41.29
2023-04-04T13:01:07.145Z,41.46
2023-04-04T13:03:37.990Z,41.82
2023-04-04T13:06:16.303Z,41.84
2023-04-04T13:08:54.406Z,42.27
2023-04-04T13:11:22.922Z,42.31
2023-04-04T13:14:04.366Z,42.21
2023-04-04T13:16:37.373Z,42.17
2023-04-04T13:19:05.721Z,42.21
2023-04-04T13:21:35.250Z,41.91
2023-04-04T13:24:04.275Z,41.83
2023-04-04T13:26:32.687Z,40.88
2023-04-04T13:29:01.000Z,40.56
2023-04-04T13:31:29.358Z,40.63
2023-04-04T13:33:57.545Z,40.15
2023-04-04T13:36:28.546Z,39.87
2023-04-04T13:38:57.203Z,39.81
2023-04-04T13:41:25.474Z,39.87
2023-04-04T13:43:53.580Z,39.27
2023-04-04T13:46:21.673Z,38.44
2023-04-04T13:48:49.984Z,39.12
2023-04-04T13:51:18.050Z,38.89
2023-04-04T13:53:46.261Z,39.14
2023-04-04T13:56:18.428Z,39.12
2023-04-04T13:58:48.255Z,39.19
2023-04-04T14:01:16.710Z,38.92
2023-04-04T14:03:44.897Z,39.14
2023-04-04T14:06:13.059Z,38.74
2023-04-04T14:08:41.625Z,38.46
2023-04-04T14:11:09.677Z,38.51
2023-04-04T14:13:37.796Z,37.68
2023-04-04T14:16:08.125Z,38.88
2023-04-04T14:18:36.343Z,39.51
2023-04-04T14:21:05.477Z,40.11
2023-04-04T14:23:33.619Z,40.21
2023-04-04T14:26:01.786Z,40.35
2023-04-04T14:28:30.120Z,40.41
2023-04-04T14:30:58.160Z,39.36
2023-04-04T14:33:26.411Z,40.70
2023-04-04T14:35:54.487Z,40.93
2023-04-04T14:38:23.007Z,41.55
2023-04-04T14:40:51.046Z,41.99
2023-04-04T14:43:19.580Z,41.93
2023-04-04T14:45:48.254Z,42.06
2023-04-04T14:48:16.307Z,42.39
2023-04-04T14:50:46.040Z,42.20
2023-04-04T14:53:14.321Z,42.49
2023-04-04T14:55:42.652Z,42.45
2023-04-04T14:58:10.939Z,42.10
2023-04-04T15:00:39.659Z,42.07
2023-04-04T15:03:08.522Z,42.36
2023-04-04T15:05:36.805Z,41.85
2023-04-04T15:08:05.021Z,41.61
2023-04-04T15:10:33.248Z,41.46
2023-04-04T15:13:01.333Z,41.61
2023-04-04T15:15:29.413Z,41.69
2023-04-04T15:17:58.692Z,41.72
2023-04-04T15:20:26.871Z,41.90
2023-04-04T15:22:55.050Z,41.83
2023-04-04T15:25:23.389Z,41.74
2023-04-04T15:27:51.479Z,41.79
2023-04-04T15:30:19.684Z,41.80
2023-04-04T15:32:47.947Z,41.25
2023-04-04T15:35:19.259Z,40.68
2023-04-04T15:37:49.119Z,40.38
2023-04-04T15:40:18.782Z,40.71
2023-04-04T15:42:48.001Z,40.15
2023-04-04T15:45:16.406Z,39.86
2023-04-04T15:47:45.173Z,39.85
2023-04-04T15:50:13.953Z,39.77
2023-04-04T15:52:42.190Z,39.36
2023-04-04T15:55:12.973Z,39.31
2023-04-04T15:57:44.573Z,38.43
2023-04-04T16:00:14.134Z,38.83
2023-04-04T16:02:42.806Z,38.88
2023-04-04T16:05:11.359Z,38.76
2023-04-04T16:07:39.498Z,39.42
2023-04-04T16:10:08.210Z,39.40
2023-04-04T16:12:36.566Z,39.07
2023-04-04T16:15:07.092Z,39.28
2023-04-04T16:17:35.351Z,40.08
2023-04-04T16:20:05.122Z,40.22
2023-04-04T16:22:33.458Z,40.16
2023-04-04T16:25:01.525Z,40.28
2023-04-04T16:27:29.817Z,40.63
2023-04-04T16:29:58.183Z,40.57
2023-04-04T16:32:26.504Z,40.47
2023-04-04T16:34:54.671Z,40.85
2023-04-04T16:37:23.387Z,40.60
2023-04-04T16:39:52.174Z,40.89
2023-04-04T16:42:20.356Z,41.25
2023-04-04T16:44:48.938Z,41.19
2023-04-04T16:47:16.991Z,41.30
2023-04-04T16:49:47.532Z,41.19
2023-04-04T16:52:16.101Z,41.24
2023-04-04T16:54:44.357Z,41.50
2023-04-04T16:57:12.470Z,41.57
2023-04-04T16:59:40.887Z,41.66
2023-04-04T17:02:09.697Z,41.90
2023-04-04T17:04:41.960Z,42.09
2023-04-04T17:07:11.012Z,42.23
2023-04-04T17:09:39.450Z,42.35
2023-04-04T17:12:08.452Z,42.46
2023-04-04T17:14:37.380Z,42.63
2023-04-04T17:17:05.943Z,42.74
2023-04-04T17:19:35.337Z,42.76
2023-04-04T17:22:03.836Z,42.96
2023-04-04T17:24:32.291Z,43.23
2023-04-04T17:27:01.616Z,43.39
2023-04-04T17:29:30.313Z,43.55
2023-04-04T17:31:58.634Z,43.69
2023-04-04T17:34:26.978Z,43.97
2023-04-04T17:36:55.775Z,44.09
2023-04-04T17:39:24.421Z,44.38
2023-04-04T17:41:53.171Z,44.71
2023-04-04T17:44:22.468Z,44.96
2023-04-04T17:46:51.196Z,45.24
2023-04-04T17:49:20.699Z,45.53
2023-04-04T17:51:50.741Z,46.02
2023-04-04T17:54:21.832Z,45.90
2023-04-04T17:56:50.475Z,45.82
2023-04-04T17:59:18.833Z,46.09
2023-04-04T18:01:47.433Z,46.35
2023-04-04T18:04:16.422Z,46.20
2023-04-04T18:06:44.581Z,46.58
2023-04-04T18:09:13.461Z,46.91
2023-04-04T18:11:42.091Z,47.06
2023-04-04T18:14:10.168Z,47.14
2023-04-04T18:16:40.846Z,47.44
2023-04-04T18:19:09.977Z,47.55
2023-04-04T18:21:38.718Z,47.57
2023-04-04T18:24:11.384Z,47.63
2023-04-04T18:26:39.754Z,47.92
2023-04-04T18:29:08.379Z,47.31
2023-04-04T18:31:36.931Z,47.80
2023-04-04T18:34:05.254Z,48.39
2023-04-04T18:36:33.356Z,48.67
2023-04-04T18:39:03.604Z,48.86
2023-04-04T18:41:32.502Z,49.15
2023-04-04T18:44:00.867Z,49.42
2023-04-04T18:46:29.597Z,49.49
2023-04-04T18:48:58.573Z,49.92
2023-04-04T18:51:26.977Z,50.12
2023-04-04T18:53:55.378Z,50.45
2023-04-04T18:56:23.525Z,50.55
2023-04-04T18:58:52.341Z,50.31
2023-04-04T19:01:21.237Z,50.01
2023-04-04T19:03:51.958Z,50.24
2023-04-04T19:06:26.941Z,50.42
2023-04-04T19:08:58.645Z,50.41
2023-04-04T19:11:32.962Z,50.56
2023-04-04T19:14:01.140Z,50.66
2023-04-04T19:16:29.540Z,50.78
2023-04-04T19:18:57.665Z,51.08
2023-04-04T19:21:26.292Z,51.15
2023-04-04T19:23:54.617Z,51.33
2023-04-04T19:26:22.703Z,51.28
2023-04-04T19:28:51.250Z,51.26
2023-04-04T19:31:22.302Z,51.42
2023-04-04T19:33:51.773Z,51.43
2023-04-04T19:36:20.055Z,51.58
2023-04-04T19:38:51.898Z,51.48
2023-04-04T19:41:33.832Z,51.46
2023-04-04T19:44:03.517Z,51.53
2023-04-04T19:46:33.228Z,52.01
2023-04-04T19:49:27.985Z,51.80
2023-04-04T19:51:58.697Z,51.51
2023-04-04T19:54:29.149Z,51.63
2023-04-04T19:57:01.074Z,51.95
2023-04-04T19:59:57.012Z,51.92
2023-04-04T20:02:31.436Z,51.77
2023-04-04T20:05:00.182Z,51.87
2023-04-04T20:07:29.778Z,51.91
2023-04-04T20:09:58.069Z,52.03
2023-04-04T20:12:33.881Z,52.32
2023-04-04T20:15:01.937Z,51.90
2023-04-04T20:17:30.110Z,52.19
2023-04-04T20:19:58.337Z,52.27
2023-04-04T20:22:26.592Z,52.18
2023-04-04T20:24:54.772Z,52.15
2023-04-04T20:27:24.415Z,52.07
2023-04-04T20:29:54.166Z,52.17
2023-04-04T20:32:22.562Z,52.14
2023-04-04T20:34:50.907Z,52.23
2023-04-04T20:37:26.277Z,51.95
2023-04-04T20:40:09.920Z,52.01
2023-04-04T20:42:40.825Z,51.83
2023-04-04T20:45:09.049Z,51.82
2023-04-04T20:47:48.912Z,51.99
2023-04-04T20:50:17.194Z,51.86
2023-04-04T20:53:03.151Z,51.46
2023-04-04T20:55:33.546Z,51.47
2023-04-04T20:58:10.262Z,51.08
2023-04-04T21:00:41.082Z,50.56
2023-04-04T21:03:31.014Z,49.99
2023-04-04T21:06:11.088Z,49.38
2023-04-04T21:08:50.717Z,48.87
2023-04-04T21:11:29.203Z,48.80
2023-04-04T21:13:57.784Z,48.54
2023-04-04T21:16:28.032Z,48.24
2023-04-04T21:19:00.877Z,48.38
2023-04-04T21:21:29.677Z,48.02
2023-04-04T21:24:00.119Z,47.84
2023-04-04T21:26:40.906Z,47.79
2023-04-04T21:29:25.354Z,47.56
2023-04-04T21:31:55.715Z,47.49
2023-04-04T21:34:25.816Z,47.35
2023-04-04T21:37:07.896Z,47.30
2023-04-04T21:39:38.700Z,47.09
2023-04-04T21:42:08.831Z,47.31
2023-04-04T21:44:38.661Z,47.48
2023-04-04T21:47:07.164Z,47.35
2023-04-04T21:49:35.218Z,47.34
2023-04-04T21:52:03.268Z,47.80
2023-04-04T21:54:31.546Z,48.34
2023-04-04T21:56:59.633Z,48.83
2023-04-04T21:59:27.874Z,49.17
2023-04-04T22:01:56.281Z,49.42
2023-04-04T22:04:24.817Z,49.66
2023-04-04T22:06:52.934Z,49.87
2023-04-04T22:09:22.720Z,50.00
2023-04-04T22:11:51.317Z,50.08
2023-04-04T22:14:19.357Z,50.08
2023-04-04T22:16:47.605Z,50.20
2023-04-04T22:19:15.887Z,50.16
2023-04-04T22:21:48.475Z,50.12
2023-04-04T22:24:18.447Z,50.14
2023-04-04T22:26:47.041Z,50.16
2023-04-04T22:29:17.462Z,50.12
2023-04-04T22:31:45.762Z,50.07
2023-04-04T22:34:15.268Z,50.17
2023-04-04T22:36:46.929Z,50.15
2023-04-04T22:39:16.558Z,50.21
2023-04-04T22:41:44.758Z,50.18
2023-04-04T22:44:12.977Z,50.09
2023-04-04T22:46:41.699Z,50.02
2023-04-04T22:49:10.227Z,49.92
2023-04-04T22:51:45.985Z,49.84
2023-04-04T22:54:18.137Z,49.74
2023-04-04T22:56:46.586Z,49.90
2023-04-04T22:59:14.764Z,49.83
2023-04-04T23:01:43.269Z,49.85
2023-04-04T23:04:11.576Z,49.79
2023-04-04T23:06:39.774Z,49.82
2023-04-04T23:09:08.409Z,49.71
2023-04-04T23:11:39.900Z,49.77
2023-04-04T23:14:09.047Z,49.79
2023-04-04T23:16:37.853Z,49.77
2023-04-04T23:19:06.243Z,49.69
2023-04-04T23:21:38.004Z,49.73
2023-04-04T23:24:07.362Z,49.73
2023-04-04T23:26:35.584Z,49.66
2023-04-04T23:29:04.048Z,49.65
2023-04-04T23:31:32.733Z,49.66
2023-04-04T23:34:01.005Z,49.68
2023-04-04T23:36:29.296Z,49.75
2023-04-04T23:38:57.875Z,49.79
2023-04-04T23:41:26.448Z,49.87
2023-04-04T23:43:54.840Z,49.95
2023-04-04T23:46:24.146Z,50.02
2023-04-04T23:48:52.365Z,50.11
2023-04-04T23:51:21.596Z,50.17
2023-04-04T23:53:49.845Z,50.25
2023-04-04T23:56:18.259Z,50.29
2023-04-04T23:58:46.360Z,50.36
